Walnut Ridge, AR (72476)

4:11 AM CDT on August 29, 2016 (GMT -0500)
Walnut Ridge Regional | | Change Station
Active Advisory: Flood Warning

Elev 272 ft 36.12 °N, 90.93 °W | Updated 16 minutes ago

Clear
Clear
75 °F
Feels Like 75 °F
N
5
Wind Variable Wind from NNE

Today
High -- | Low -- °F
--% Chance of Precip.
Yesterday
High -- | Low -- °F
Precip. -- in
Pressure 30.07 in
Visibility 10.0 miles
Clouds Clear
Dew Point 72 °F
Humidity 89%
Rainfall 0.00 in
Snow Depth Not available.
6:33 AM 7:34 PM
Waning Crescent, 10% visible
METAR KARG 290855Z AUTO 02004KT 10SM CLR 24/22 A3007 RMK AO1 57007
Pressure 30.07 in
Visibility 10.0 miles
Clouds Clear
Dew Point 72 °F
Humidity 89%
Rainfall 0.00 in
Snow Depth Not available.
6:33 AM 7:34 PM
Waning Crescent, 10% visible
METAR KARG 290855Z AUTO 02004KT 10SM CLR 24/22 A3007 RMK AO1 57007

10-Day Weather Forecast

Almanac

Astronomy

Aug. 29, 2016 Rise Set
Actual Time
Civil Twilight
Nautical Twilight
Astronomical Twilight
Moon
Length of Visible Light
Length of Day
Tomorrow will be .
, % of the Moon is Illuminated

Today's Extremes

State Highs State Lows

Community

WunderPhotos

Upload Photos

1,935,798 photos uploaded!

WunderBlog® & News

Nearby

Air Quality

  Air Quality AQ Index Pollutant
Not available.

Snow Depth

Station Depth Elevation

Earthquake Activity

City Distance Mag. Time & Date
Minimum magnitude displayed is 2.5.

Coastal Water Temperatures

Place Temperature

Stations

Nearby Weather Stations

Station Location Temp. Windchill Dew Point Humidity Wind Precip. Elev Updated Type
                   

Watches & Warnings

Flood Warning
Issued: 7:54 PM CDT Aug. 28, 2016 – National Weather Service

The Flood Warning continues for
the Black River at Black Rock.
* Until further notice... or until the warning is cancelled.
* At 7:00 PM Sunday the stage was 19.9 feet.
* Minor flooding is occurring and minor flooding is forecast.
* Flood stage is 14.0 feet.
* Forecast... the river will continue to fall to a stage of 18.6 feet
by Tuesday morning.
* Impacts at 20.0 feet... agricultural land is flooding along both
banks of the river in Lawrence, Independence, and Jackson counties.
Minor flooding in Powhatan community and courthouse State Park.


             Fld observed forecast 6 am
location stg stg day time Mon Tue Wed Thu Fri

Black River
Black Rock 14 19.9 sun 07 PM 19.5 18.6 17.6 16.7 15.8




Lat... Lon 3570 9140 3591 9125 3612 9115 3610 9101
3588 9110 3564 9128